Tiempo atmosférico en la estación meteorológica de Chipiona, Cádiz (10 m.)



Fecha
DESCASC
Temp. máxima en grados centígrados (hora)
DESCASC
Temp. mínima en grados centígrados (hora)
DESCASC
Temp. media en grados centígrados
DESCASC
Racha de viento máxima en m/sg (hora)
DESCASC
Velocidad máxima media en intervalos de 10 minutos(hora)
DESCASC
Precipitaciones diarias en mm
DESCASC
Precipitaciones de 00:00 a 06:00 en mm
DESCASC
Precipitaciones de 06:00 a 12:00 en mm
DESCASC
Precipitaciones de 12:00 a 18:00 en mm
DESCASC
Precipitaciones de 18:00 a 24:00 en mm
DESCASC
20-09-2018 32.2 (14:00) 19.1 (07:00) 25.7 8.61 (11:50) 5 (15:00) 0 0 0 0 0
19-09-2018 27.9 (18:10) 20.7 (08:20) 24.3 6.94 (15:30) 5.28 (16:30) 0 0 0 0 0
18-09-2018 27.8 (15:20) 21.3 (07:40) 24.5 7.78 (15:30) 5 (17:00) 0 0 0 0 0
17-09-2018 32.2 (14:20) 21.3 (08:20) 26.8 10.83 (13:10) 5 (12:50) 0 0 0 0 0
16-09-2018 31.5 (16:20) 20.5 (00:00) 26 7.5 (15:30) 3.89 (18:30) 4 4 0 0 0
15-09-2018 28.5 (14:00) 19.9 (00:00) 24.2 7.22 (17:00) 5.28 (15:20) 0 0 0 0 0
14-09-2018 25.5 (18:30) 20.4 (00:00) 22.9 6.39 (21:50) 3.89 (15:20) 0.6 0 0 0 0.6
13-09-2018 26.1 (16:10) 21.2 (00:00) 23.7 8.06 (17:40) 5 (16:40) 0 0 0 0 0
12-09-2018 32.4 (13:30) 21.4 (00:00) 26.9 10.83 (15:30) 6.11 (17:00) 0 0 0 0 0
11-09-2018 32.2 (13:40) 21.3 (00:00) 26.8 9.72 (19:40) 6.11 (19:40) 0 0 0 0 0
10-09-2018 33.9 (16:30) 18.9 (00:00) 26.4 9.17 (13:40) 5 (14:20) 0 0 0 0 0
09-09-2018 26.4 (16:10) 18.4 (00:00) 22.4 9.72 (15:30) 5.83 (16:20) 1.8 1.8 0 0 0
08-09-2018 25.1 (16:30) 20.7 (00:00) 22.9 6.39 (18:10) 4.72 (17:50) 0 0 0 0 0
07-09-2018 25.1 (15:00) 19 (00:00) 22.1 7.78 (17:50) 5.56 (17:50) 0 0 0 0 0
06-09-2018 25.3 (16:00) 18.4 (00:00) 21.8 8.33 (16:30) 5.83 (16:30) 0 0 0 0 0
05-09-2018 26.1 (14:20) 21 (00:00) 23.6 8.06 (16:50) 5 (15:40) 0 0 0 0 0
04-09-2018 26.4 (16:30) 20 (00:00) 23.2 6.94 (17:20) 3.89 (15:30) 0 0 0 0 0
03-09-2018 25.7 (15:10) 21.8 (00:00) 23.8 9.17 (15:30) 5.83 (14:40) 0 0 0 0 0
02-09-2018 36.1 (15:40) 23.2 (00:00) 29.6 10.83 (23:10) 7.22 (23:10) 0 0 0 0 0
01-09-2018 34.9 (16:10) 20.6 (00:00) 27.8 12.5 (12:10) 7.5 (16:20) 0 0 0 0 0
31-08-2018 33.7 (17:00) 19.8 (00:00) 26.8 7.22 (18:40) 4.72 (16:10) 0 0 0 0 0
30-08-2018 26.8 (18:20) 19.9 (00:00) 23.3 6.94 (13:30) 4.72 (14:40) 0 0 0 0 0
29-08-2018 26.6 (15:50) 19.1 (00:00) 22.9 8.33 (19:30) 5.56 (17:10) 0 0 0 0 0
28-08-2018 26 (13:00) 20.7 (00:00) 23.4 13.33 (00:10) 8.61 (00:10) 0 0 0 0 0
27-08-2018 34.7 (15:40) 20.3 (00:00) 27.5 15 (23:50) 9.17 (22:50) 0 0 0 0 0
26-08-2018 32.2 (14:40) 20.2 (00:00) 26.2 6.39 (13:00) 4.17 (15:30) 0 0 0 0 0
25-08-2018 30.8 (14:10) 20.8 (00:00) 25.8 6.67 (15:00) 4.44 (11:40) 0 0 0 0 0
24-08-2018 31.7 (18:10) 20.1 (00:00) 25.9 6.39 (15:00) 4.17 (16:30) 0 0 0 0 0

Gráficas

Temp. máximas Temp. mínimas Temp. medias Precipitaciones Rachas de viento máximas Velocidades máximas media en intervalos de 10 minutos

Datos horarios

Fecha y hora oficial Temperatura (ºC) Velocidad del viento (km/h) Dirección del viento Racha (km/h) Dirección de racha Precipitación (mm) Presión (hPa) Tendencia (hPa) Humedad (%)
2018-09-22 23:00:00 25.6 16 Sudeste 27 Sudeste 0 -- -- 42
2018-09-22 22:00:00 26.3 10 Este 20 Este 0 -- -- 39
2018-09-22 21:00:00 28.6 10 Sudeste 25 Sudeste 0 -- -- 36
2018-09-22 20:00:00 31.7 13 Sudeste 30 Sudeste 0 -- -- 33
2018-09-22 19:00:00 33.8 18 Sudeste 33 Sudeste 0 -- -- 30
2018-09-22 18:00:00 34.9 22 Sudeste 37 Sudeste 0 -- -- 29
2018-09-22 17:00:00 35.8 22 Sudeste 36 Sudeste 0 -- -- 30
2018-09-22 16:00:00 32 18 Oeste 24 Oeste 0 -- -- 49
2018-09-22 15:00:00 32.9 10 Sudoeste 21 Sudoeste 0 -- -- 44
2018-09-22 14:00:00 32.7 12 Oeste 21 Este 0 -- -- 44
2018-09-22 13:00:00 32.2 7 Este 16 Nordeste 0 -- -- 42
2018-09-22 12:00:00 30 7 Nordeste 17 Nordeste 0 -- -- 49
2018-09-22 11:00:00 27.5 10 Nordeste 18 Nordeste 0 -- -- 57
2018-09-22 10:00:00 24.2 6 Nordeste 12 Nordeste 0 -- -- 68
2018-09-22 09:00:00 20.2 5 Nordeste 10 Nordeste 0 -- -- 76
2018-09-22 08:00:00 19.4 5 Nordeste 8 Este 0 -- -- 81
2018-09-22 07:00:00 20.1 5 Nordeste 7 Norte 0 -- -- 82
2018-09-22 06:00:00 20.9 5 Norte 8 Nordeste 0 -- -- 73
2018-09-22 05:00:00 19.5 3 Este 7 Este 0 -- -- 84
2018-09-22 04:00:00 20.2 4 Este 6 Norte 0 -- -- 88
2018-09-22 03:00:00 20.9 2 Nordeste 6 Norte 0 -- -- 84
2018-09-22 02:00:00 21.2 2 Nordeste 6 Este 0 -- -- 85
2018-09-22 01:00:00 22.3 3 Este 6 Sudeste 0 -- -- 86
2018-09-22 00:00:00 23 3 Sudeste 5 Sudeste 0 -- -- 87
2018-09-21 23:00:00 23.9 4 Sudeste 7 Sur 0 -- -- 85
2018-09-21 22:00:00 24.7 5 Sur 6 Sur 0 -- -- 83
2018-09-21 21:00:00 26.1 3 Noroeste 10 Noroeste 0 -- -- 78
2018-09-21 20:00:00 27.1 6 Noroeste 15 Oeste 0 -- -- 73
2018-09-21 19:00:00 27.7 10 Oeste 18 Oeste 0 -- -- 71
2018-09-21 18:00:00 27.5 14 Oeste 23 Oeste 0 -- -- 73
2018-09-21 17:00:00 27.7 15 Oeste 22 Oeste 0 -- -- 73
2018-09-21 16:00:00 27.9 15 Oeste 21 Oeste 0 -- -- 72
2018-09-21 15:00:00 27.6 13 Oeste 23 Oeste 0 -- -- 73
2018-09-21 14:00:00 27.5 15 Oeste 24 Oeste 0 -- -- 73
2018-09-21 13:00:00 27.4 12 Noroeste 16 Noroeste 0 -- -- 72
2018-09-21 12:00:00 27 6 Noroeste 15 Este 0 -- -- 72
2018-09-21 11:00:00 25.5 7 Este 13 Este 0 -- -- 76
2018-09-21 10:00:00 23 4 Sudeste 8 Sudeste 0 -- -- 88
2018-09-21 09:00:00 20.5 4 Este 6 Este 0 -- -- 95
2018-09-21 08:00:00 20 6 Nordeste 11 Sudeste 0 -- -- 95
2018-09-21 07:00:00 19.6 6 Este 11 Este 0 -- -- 93
2018-09-21 06:00:00 19.5 7 Este 9 Nordeste 0 -- -- 94
2018-09-21 05:00:00 19.3 4 Este 5 Este 0 -- -- 93
2018-09-21 04:00:00 20.2 3 Este 8 Sudeste 0 -- -- 91
2018-09-21 03:00:00 21.4 7 Sudeste 10 Sudeste 0 -- -- 90
2018-09-21 02:00:00 21.3 3 Sudeste 6 Sudeste 0 -- -- 93
2018-09-21 01:00:00 22.2 3 Sudoeste 8 Oeste 0 -- -- 93
2018-09-21 00:00:00 22.9 3 Sudoeste 8 Oeste 0 -- -- 91
2018-09-20 23:00:00 23.8 6 Oeste 10 Oeste 0 -- -- 90
2018-09-20 22:00:00 24.2 6 Oeste 11 Oeste 0 -- -- 88
2018-09-20 21:00:00 24.7 7 Oeste 14 Sudoeste 0 -- -- 86
2018-09-20 20:00:00 26 12 Oeste 19 Sudoeste 0 -- -- 79
2018-09-20 19:00:00 27.3 14 Oeste 20 Oeste 0 -- -- 76
2018-09-20 18:00:00 27.9 13 Oeste 21 Oeste 0 -- -- 72
2018-09-20 17:00:00 28.3 14 Oeste 24 Oeste 0 -- -- 72
2018-09-20 16:00:00 28.8 15 Oeste 24 Sudoeste 0 -- -- 70
2018-09-20 15:00:00 29.4 18 Oeste 26 Oeste 0 -- -- 69
2018-09-20 14:00:00 32.2 11 Sudeste 25 Sudeste 0 -- -- 50
2018-09-20 13:00:00 30.9 13 Este 29 Sudeste 0 -- -- 55
2018-09-20 12:00:00 29.3 18 Este 31 Este 0 -- -- 61
2018-09-20 11:00:00 26.9 9 Nordeste 17 Nordeste 0 -- -- 69
2018-09-20 10:00:00 23.9 5 Este 9 Sudeste 0 -- -- 85
2018-09-20 09:00:00 20 4 Este 6 Este 0 -- -- 97
2018-09-20 08:00:00 19.4 4 Este 7 Este 0 -- -- 97
2018-09-20 07:00:00 19.1 3 Este 5 Este 0 -- -- 95
2018-09-20 06:00:00 19.7 0 Calma 6 Nordeste 0 -- -- 94
2018-09-20 05:00:00 20.2 5 Nordeste 8 Sudeste 0 -- -- 94
2018-09-20 04:00:00 20.8 5 Este 7 Este 0 -- -- 93
2018-09-20 03:00:00 21.1 2 Sudeste 7 Sur 0 -- -- 91
2018-09-20 02:00:00 22 4 Sur 7 Sur 0 -- -- 94
2018-09-20 01:00:00 22.2 4 Sudeste 6 Sudeste 0 -- -- 94
2018-09-20 00:00:00 22.8 0 Calma 8 Sudeste 0 -- -- 92
2018-09-19 23:00:00 23.7 5 Sudeste 10 Sur 0 -- -- 92
2018-09-19 22:00:00 24.2 6 Sur 14 Sur 0 -- -- 91
2018-09-19 21:00:00 24.6 7 Sudoeste 14 Sur 0 -- -- 89
2018-09-19 20:00:00 25.7 9 Sudoeste 18 Sudoeste 0 -- -- 84
2018-09-19 19:00:00 27 10 Sudoeste 20 Oeste 0 -- -- 79
2018-09-19 18:00:00 27.6 13 Oeste 23 Oeste 0 -- -- 76
2018-09-19 17:00:00 27.5 15 Sudoeste 24 Oeste 0 -- -- 78
2018-09-19 16:00:00 26.9 17 Oeste 25 Oeste 0 -- -- 81
2018-09-19 15:00:00 26.8 14 Oeste 22 Oeste 0 -- -- 82
2018-09-19 14:00:00 26.8 14 Oeste 20 Oeste 0 -- -- 79
2018-09-19 13:00:00 27.2 13 Oeste 20 Oeste 0 -- -- 76
2018-09-19 12:00:00 27 5 Noroeste 10 Sur 0 -- -- 76
2018-09-19 11:00:00 25.7 4 Sudeste 10 Sudeste 0 -- -- 79
2018-09-19 10:00:00 23.3 5 Sudeste 9 Sudeste 0 -- -- 92
2018-09-19 09:00:00 21 4 Este 8 Este 0 -- -- 99
2018-09-19 08:00:00 20.9 4 Este 8 Este 0 -- -- 99
2018-09-19 07:00:00 21.4 4 Sudeste 9 Este 0 -- -- 99
2018-09-19 06:00:00 21.3 6 Este 12 Este 0 -- -- 99
2018-09-19 05:00:00 21.7 3 Sudeste 9 Sudeste 0 -- -- 98
2018-09-19 04:00:00 21.6 6 Sudeste 8 Sudeste 0 -- -- 97
2018-09-19 03:00:00 21.5 4 Sudeste 6 Sudeste 0 -- -- 96
2018-09-19 02:00:00 21.8 3 Sudeste -- -- 0 -- -- 95
2018-09-19 01:00:00 22.6 0 Calma 8 Sur 0 -- -- 94
2018-09-19 00:00:00 23.1 6 Sur 8 Sur 0 -- -- 93
2018-09-18 23:00:00 23.8 6 Sudoeste 13 Sudoeste 0 -- -- 92
2018-09-18 22:00:00 24.3 11 Oeste 17 Oeste 0 -- -- 92
2018-09-18 21:00:00 24.6 10 Oeste 18 Oeste 0 -- -- 90
2018-09-18 20:00:00 25.7 12 Oeste 20 Sudoeste 0 -- -- 85
2018-09-18 19:00:00 26.8 13 Oeste 24 Sudoeste 0 -- -- 80
2018-09-18 18:00:00 27.4 15 Sudoeste 24 Oeste 0 -- -- 78
2018-09-18 17:00:00 27.3 18 Oeste 24 Oeste 0 -- -- 79
2018-09-18 16:00:00 27.6 16 Oeste 28 Sudoeste 0 -- -- 77
2018-09-18 15:00:00 27.3 14 Oeste 23 Oeste 0 -- -- 79
2018-09-18 14:00:00 27.4 12 Oeste 17 Oeste 0 -- -- 75
2018-09-18 13:00:00 27 9 Oeste 17 Oeste 0 -- -- 76
2018-09-18 12:00:00 26.3 10 Oeste 17 Oeste 0 -- -- 82
2018-09-18 11:00:00 25.7 5 Noroeste 9 Sudoeste 0 -- -- 85
2018-09-18 10:00:00 24.6 5 Sur 10 Sur 0 -- -- 93
2018-09-18 09:00:00 22.1 5 Sudeste 8 Sudeste 0 -- -- 98
2018-09-18 08:00:00 21.3 4 Sur 7 Sur 0 -- -- 96
2018-09-18 07:00:00 21.9 0 Calma 4 Sudeste 0 -- -- 95
2018-09-18 06:00:00 23 0 Calma 8 Noroeste 0 -- -- 94
2018-09-18 05:00:00 23.5 5 Oeste 10 Oeste 0 -- -- 95
2018-09-18 04:00:00 22.6 2 Oeste 4 Oeste 0 -- -- 94
2018-09-18 03:00:00 22.7 2 Sudeste 3 Sudeste 0 -- -- 94
2018-09-18 02:00:00 23.3 0 Calma 3 Este 0 -- -- 93
2018-09-18 01:00:00 24.3 0 Calma 10 Oeste 0 -- -- 91
2018-09-18 00:00:00 24.7 7 Oeste 13 Oeste 0 -- -- 91
2018-09-17 23:00:00 24.7 6 Oeste 13 Oeste 0 -- -- 90
2018-09-17 22:00:00 24.9 6 Oeste 13 Oeste 0 -- -- 89
2018-09-17 21:00:00 25.3 9 Sudoeste 17 Sudoeste 0 -- -- 86
2018-09-17 20:00:00 26.4 10 Sudoeste 19 Sudoeste 0 -- -- 81
2018-09-17 19:00:00 27.8 12 Sudoeste 22 Oeste 0 -- -- 74
2018-09-17 18:00:00 28.4 14 Sudoeste 23 Sudoeste 0 -- -- 67
2018-09-17 17:00:00 29.4 13 Oeste 21 Oeste 0 -- -- 67
2018-09-17 16:00:00 29.5 15 Oeste 23 Noroeste 0 -- -- 65
2018-09-17 15:00:00 29.2 14 Oeste 25 Sudeste 0 -- -- 68
2018-09-17 14:00:00 31.4 14 Sudeste 39 Sur 0 -- -- 57
2018-09-17 13:00:00 30.4 12 Sudeste 27 Este 0 -- -- 62
2018-09-17 12:00:00 28.7 11 Este 22 Este 0 -- -- 65
2018-09-17 11:00:00 26.7 13 Este 21 Este 0 -- -- 69
2018-09-17 10:00:00 24.2 12 Este 22 Este 0 -- -- 79
2018-09-17 09:00:00 22 9 Nordeste 15 Nordeste 0 -- -- 90
2018-09-17 08:00:00 21.6 8 Nordeste 14 Nordeste 0 -- -- 94
2018-09-17 07:00:00 22.1 4 Norte 14 Nordeste 0 -- -- 93
2018-09-17 06:00:00 21.9 5 Nordeste 14 Nordeste 0 -- -- 91
2018-09-17 05:00:00 21.8 6 Nordeste 10 Nordeste 0 -- -- 90
2018-09-17 04:00:00 21.9 5 Norte 10 Nordeste 0 -- -- 89
2018-09-17 03:00:00 21.7 5 Sudeste 7 Este 0 -- -- 89
2018-09-17 02:00:00 22.4 4 Este 7 Este 0 -- -- 87
2018-09-17 01:00:00 22.9 0 Calma 8 Sudeste 0 -- -- 84
2018-09-17 00:00:00 23.3 2 Este 7 Este 0 -- -- 84
2018-09-16 23:00:00 24.2 3 Sudeste 12 Este 0 -- -- 81
2018-09-16 22:00:00 24.7 4 Sudeste 8 Oeste 0 -- -- 84
2018-09-16 21:00:00 25.6 5 Oeste 9 Sudoeste 0 -- -- 81
2018-09-16 20:00:00 27.2 8 Sudoeste 14 Sudoeste 0 -- -- 71
2018-09-16 19:00:00 27.4 9 Sudoeste 21 Sudoeste 0 -- -- 80
2018-09-16 18:00:00 29 11 Oeste 22 Sudoeste 0 -- -- 65
2018-09-16 17:00:00 31.3 10 Norte 23 Nordeste 0 -- -- 51
2018-09-16 16:00:00 31.2 11 Norte 27 Norte 0 -- -- 52
2018-09-16 15:00:00 29.7 9 Norte 21 Norte 0 -- -- 60
2018-09-16 14:00:00 29.7 10 Norte 22 Nordeste 0 -- -- 62
2018-09-16 13:00:00 29.3 13 Nordeste 24 Este 0 -- -- 58
2018-09-16 12:00:00 27.1 11 Este 17 Nordeste 0 -- -- 71
2018-09-16 11:00:00 25.4 12 Nordeste 18 Nordeste 0 -- -- 79
2018-09-16 10:00:00 23.3 6 Nordeste 15 Nordeste 0 -- -- 87
2018-09-16 09:00:00 20.9 6 Nordeste 12 Este 0 -- -- 95
2018-09-16 08:00:00 20.7 4 Nordeste 13 Nordeste 0 -- -- 96
2018-09-16 07:00:00 20.9 4 Nordeste 13 Norte 0 -- -- 96
2018-09-16 06:00:00 21.2 6 Nordeste 15 Nordeste 0 -- -- 96
2018-09-16 05:00:00 22 5 Nordeste 9 Nordeste 0 -- -- 95
2018-09-16 04:00:00 22.5 0 Calma 5 Noroeste 2.4 -- -- 94
2018-09-16 03:00:00 23.1 3 Este 6 Nordeste 1.6 -- -- 90
2018-09-16 02:00:00 23.6 2 Norte 3 Nordeste 0 -- -- 82
2018-09-16 01:00:00 23.8 2 Este 13 Sur 0 -- -- 81
2018-09-16 00:00:00 24.1 5 Sur 12 Sudeste 0 -- -- 79
2018-09-15 23:00:00 24.3 5 Sur 24 Norte 0 -- -- 78
2018-09-15 22:00:00 24.2 6 Nordeste 15 Norte 0 -- -- 79
2018-09-15 21:00:00 24.9 6 Sudeste 12 Sudoeste 0 -- -- 72
2018-09-15 20:00:00 26.4 8 Sudoeste 17 Sudoeste 0 -- -- 64
2018-09-15 19:00:00 26.9 12 Oeste 23 Sudoeste 0 -- -- 66
2018-09-15 18:00:00 27 16 Oeste 23 Oeste 0 -- -- 65
2018-09-15 17:00:00 27.2 18 Oeste 26 Noroeste 0 -- -- 67
2018-09-15 16:00:00 27.3 19 Oeste 24 Oeste 0 -- -- 68
2018-09-15 15:00:00 27.8 17 Oeste 23 Oeste 0 -- -- 66
2018-09-15 14:00:00 28.5 10 Noroeste 14 Noroeste 0 -- -- 54
2018-09-15 13:00:00 27.6 5 Norte 15 Noroeste 0 -- -- 61
2018-09-15 12:00:00 25.9 7 Norte 15 Norte 0 -- -- 70
2018-09-15 11:00:00 23.9 2 Este 8 Nordeste 0 -- -- 78
2018-09-15 10:00:00 22 4 Nordeste 9 Nordeste 0 -- -- 84
2018-09-15 09:00:00 21.2 4 Nordeste 12 Norte 0 -- -- 88
2018-09-15 08:00:00 20.7 5 Nordeste 8 Nordeste 0 -- -- 89
2018-09-15 07:00:00 20.7 4 Norte 14 Norte 0 -- -- 89
2018-09-15 06:00:00 20.5 5 Noroeste 14 Noroeste 0 -- -- 90
2018-09-15 05:00:00 20.7 6 Norte 13 Norte 0 -- -- 91
2018-09-15 04:00:00 20.5 4 Norte 11 Norte 0 -- -- 90
2018-09-15 03:00:00 19.9 3 Noroeste 10 Nordeste 0 -- -- 92
2018-09-15 02:00:00 20.1 6 Sudeste 13 Sudeste 0 -- -- 91
2018-09-15 01:00:00 21.2 4 Nordeste 15 Nordeste 0 -- -- 85
2018-09-15 00:00:00 21.8 6 Norte 20 Norte 0 -- -- 79
2018-09-14 23:00:00 22 3 Norte 20 Norte 0.6 -- -- 83
2018-09-14 22:00:00 24.2 12 Nordeste 23 Nordeste 0 -- -- 70
2018-09-14 21:00:00 24.5 6 Sudeste 15 Sudeste 0 -- -- 84
2018-09-14 20:00:00 24.7 7 Sur 10 Sudeste 0 -- -- 83
2018-09-14 19:00:00 25 7 Oeste 12 Sudoeste 0 -- -- 81
2018-09-14 18:00:00 25 6 Sur 13 Sudoeste 0 -- -- 80
2018-09-14 17:00:00 24.1 9 Oeste 17 Oeste 0 -- -- 86
2018-09-14 16:00:00 24.3 11 Sudoeste 20 Oeste 0 -- -- 84
2018-09-14 15:00:00 24.9 11 Sudoeste 16 Sudoeste 0 -- -- 82
2018-09-14 14:00:00 24.7 10 Oeste 15 Oeste 0 -- -- 82
2018-09-14 13:00:00 24.5 9 Oeste 14 Oeste 0 -- -- 82
2018-09-14 12:00:00 24.6 6 Oeste 15 Oeste 0 -- -- 83
2018-09-14 11:00:00 24 6 Oeste 9 Oeste 0 -- -- 85
2018-09-14 10:00:00 22.5 0 Calma 6 Nordeste 0 -- -- 91
2018-09-14 09:00:00 20.8 0 Calma 6 Sur 0 -- -- 95
2018-09-14 08:00:00 20.4 4 Sudeste 6 Sudeste 0 -- -- 94
2018-09-14 07:00:00 20.8 5 Sur 13 Sudeste 0 -- -- 94
2018-09-14 06:00:00 21.1 6 Sudeste 9 Este 0 -- -- 93
2018-09-14 05:00:00 21.1 4 Este 6 Sudeste 0 -- -- 93
2018-09-14 04:00:00 21.3 3 Sudeste 5 Sudeste 0 -- -- 92
2018-09-14 03:00:00 21.5 4 Sudoeste 11 Sudoeste 0 -- -- 91
2018-09-14 02:00:00 22 7 Sudoeste 14 Sudoeste 0 -- -- 91
2018-09-14 01:00:00 22.3 7 Sudoeste 18 Sudoeste 0 -- -- 89
2018-09-14 00:00:00 22.7 9 Sudoeste 20 Sudoeste 0 -- -- 89
2018-09-13 23:00:00 22.7 9 Sudoeste 18 Sudoeste 0 -- -- 89
2018-09-13 22:00:00 22.7 8 Sudoeste 19 Sudoeste 0 -- -- 89
2018-09-13 21:00:00 22.9 9 Sudoeste 17 Sudoeste 0 -- -- 89
2018-09-13 20:00:00 23.3 11 Sudoeste 19 Sudoeste 0 -- -- 87
2018-09-13 19:00:00 23.9 13 Sudoeste 26 Sudoeste 0 -- -- 84
2018-09-13 18:00:00 25.1 16 Sudoeste 29 Sudoeste 0 -- -- 79
2018-09-13 17:00:00 25.7 15 Sudoeste 27 Sudoeste 0 -- -- 77
2018-09-13 16:00:00 26 17 Oeste 26 Oeste 0 -- -- 74
2018-09-13 15:00:00 26 14 Sudoeste 27 Oeste 0 -- -- 74
2018-09-13 14:00:00 26 15 Sudoeste 22 Oeste 0 -- -- 74
2018-09-13 13:00:00 24.6 12 Oeste 18 Oeste 0 -- -- 78
2018-09-13 12:00:00 24 7 Oeste 14 Oeste 0 -- -- 80
2018-09-13 11:00:00 23.1 9 Oeste 14 Oeste 0 -- -- 84
2018-09-13 10:00:00 22.5 4 Oeste 14 Sudoeste 0 -- -- 87
2018-09-13 09:00:00 22.2 7 Sudoeste 14 Sudoeste 0 -- -- 92
2018-09-13 08:00:00 22 5 Sur 12 Sudoeste 0 -- -- 94
2018-09-13 07:00:00 21.2 3 Sudeste 6 Sur 0 -- -- 95
2018-09-13 06:00:00 21.8 3 Sur 8 Sur 0 -- -- 92
2018-09-13 05:00:00 22.8 3 Sudoeste 9 Oeste 0 -- -- 92
2018-09-13 04:00:00 22.9 5 Oeste 10 Oeste 0 -- -- 93
2018-09-13 03:00:00 23.3 6 Oeste 11 Oeste 0 -- -- 94
2018-09-13 02:00:00 23.3 9 Oeste 14 Oeste 0 -- -- 96
2018-09-13 01:00:00 23.3 6 Sudoeste 15 Sudoeste 0 -- -- 95
2018-09-13 00:00:00 23.6 7 Sur 13 Sudoeste 0 -- -- 93
2018-09-12 23:00:00 23.7 7 Sur 18 Sur 0 -- -- 92
2018-09-12 22:00:00 23.9 12 Sur 24 Sur 0 -- -- 90
2018-09-12 21:00:00 24.5 10 Sur 20 Sur 0 -- -- 86
2018-09-12 20:00:00 26.3 10 Sur 27 Sur 0 -- -- 77
2018-09-12 19:00:00 27.3 16 Sur 32 Sur 0 -- -- 74
2018-09-12 18:00:00 29 19 Sur 33 Sur 0 -- -- 68
2018-09-12 17:00:00 29.3 22 Sur 36 Sur 0 -- -- 66
2018-09-12 16:00:00 30.1 21 Sur 39 Sur 0 -- -- 66
2018-09-12 15:00:00 31.2 16 Sur 29 Sur 0 -- -- 61
2018-09-12 14:00:00 30.3 18 Sur 30 Sudoeste 0 -- -- 66
2018-09-12 13:00:00 31.5 12 Este 28 Este 0 -- -- 57
2018-09-12 12:00:00 30.1 12 Este 37 Este 0 -- -- 58
2018-09-12 11:00:00 28.5 12 Este 23 Este 0 -- -- 63
2018-09-12 10:00:00 26.2 9 Nordeste 17 Nordeste 0 -- -- 70
2018-09-12 09:00:00 23 5 Nordeste 10 Este 0 -- -- 82
2018-09-12 08:00:00 21.8 6 Nordeste 11 Nordeste 0 -- -- 85
2018-09-12 07:00:00 21.7 7 Nordeste 10 Nordeste 0 -- -- 87
2018-09-12 06:00:00 22 2 Nordeste 5 Norte 0 -- -- 86
2018-09-12 05:00:00 23 3 Norte 10 Noroeste 0 -- -- 84
2018-09-12 04:00:00 24.2 6 Noroeste 18 Norte 0 -- -- 81
2018-09-12 03:00:00 24 5 Nordeste 10 Norte 0 -- -- 82
2018-09-12 02:00:00 24.8 7 Nordeste 19 Este 0 -- -- 81
2018-09-12 01:00:00 25.1 15 Este 24 Este 0 -- -- 80
2018-09-12 00:00:00 25.2 13 Este 24 Este 0 -- -- 78
2018-09-11 23:00:00 25.6 14 Este 27 Este 0 -- -- 76
2018-09-11 22:00:00 26.1 14 Este 33 Sudeste 0 -- -- 72
2018-09-11 21:00:00 27.3 19 Sudeste 34 Este 0 -- -- 67
2018-09-11 20:00:00 29.7 16 Sudeste 35 Sudeste 0 -- -- 59
2018-09-11 19:00:00 31.9 10 Este 25 Sur 0 -- -- 51
2018-09-11 18:00:00 29.5 9 Noroeste 21 Oeste 0 -- -- 65
2018-09-11 17:00:00 30.3 14 Oeste 22 Oeste 0 -- -- 64
2018-09-11 16:00:00 30 15 Oeste 22 Oeste 0 -- -- 55
2018-09-11 15:00:00 30 15 Oeste 23 Oeste 0 -- -- 64
2018-09-11 14:00:00 30.3 5 Sudoeste 23 Sudeste 0 -- -- 54
2018-09-11 13:00:00 29.8 8 Este 21 Norte 0 -- -- 53
2018-09-11 12:00:00 28.6 6 Norte 15 Este 0 -- -- 57
2018-09-11 11:00:00 27.1 11 Este 17 Este 0 -- -- 62
2018-09-11 10:00:00 24.2 6 Norte 11 Nordeste 0 -- -- 70
2018-09-11 09:00:00 22.4 4 Norte 10 Nordeste 0 -- -- 79
2018-09-11 08:00:00 21.9 7 Nordeste 14 Norte 0 -- -- 75
2018-09-11 07:00:00 21.5 7 Nordeste 12 Nordeste 0 -- -- 77
2018-09-11 06:00:00 21.5 4 Nordeste 12 Nordeste 0 -- -- 79
2018-09-11 05:00:00 22.1 6 Nordeste 8 Nordeste 0 -- -- 81
2018-09-11 04:00:00 23.1 4 Norte 10 Nordeste 0 -- -- 79
2018-09-11 03:00:00 23.5 8 Este 17 Este 0 -- -- 73
2018-09-11 02:00:00 24.3 9 Este 20 Este 0 -- -- 70
2018-09-11 01:00:00 24.4 13 Este 25 Sudeste 0 -- -- 76
2018-09-11 00:00:00 24.6 13 Este 24 Este 0 -- -- 73
2018-09-10 23:00:00 25.1 14 Este 29 Sudeste 0 -- -- 69
2018-09-10 22:00:00 26 17 Sudeste 27 Sudeste 0 -- -- 62
2018-09-10 21:00:00 27 12 Sudeste 21 Sudeste 0 -- -- 57
2018-09-10 20:00:00 29.6 9 Sur 14 Sudoeste 0 -- -- 57
2018-09-10 19:00:00 30.8 8 Sur 22 Sur 0 -- -- 50
2018-09-10 18:00:00 31.6 16 Sur 25 Norte 0 -- -- 48
2018-09-10 17:00:00 33.7 14 Norte 29 Norte 0 -- -- 33
2018-09-10 16:00:00 33 15 Norte 32 Nordeste 0 -- -- 36
2018-09-10 15:00:00 32.5 16 Nordeste 32 Nordeste 0 -- -- 35
2018-09-10 14:00:00 31.4 15 Norte 33 Nordeste 0 -- -- 42
2018-09-10 13:00:00 29 14 Norte 28 Nordeste 0 -- -- 51
2018-09-10 12:00:00 26.9 13 Nordeste 28 Nordeste 0 -- -- 57
2018-09-10 11:00:00 24.4 14 Nordeste 31 Nordeste 0 -- -- 63
2018-09-10 10:00:00 21.9 14 Nordeste 27 Nordeste 0 -- -- 77
2018-09-10 09:00:00 20.1 5 Norte 11 Este 0 -- -- 87
2018-09-10 08:00:00 19.5 7 Este 12 Nordeste 0 -- -- 89
2018-09-10 07:00:00 19.6 7 Nordeste 13 Nordeste 0 -- -- 91
2018-09-10 06:00:00 19.2 5 Nordeste 8 Nordeste 0 -- -- 92
2018-09-10 05:00:00 18.9 4 Nordeste 6 Nordeste 0 -- -- 92
2018-09-10 04:00:00 19.1 2 Este 5 Este 0 -- -- 91
2018-09-10 03:00:00 19.7 4 Nordeste 7 Este 0 -- -- 91
2018-09-10 02:00:00 19.9 3 Este 7 Este 0 -- -- 90
2018-09-10 01:00:00 20.3 5 Este 8 Este 0 -- -- 88
2018-09-10 00:00:00 21.1 3 Sudeste 5 Este 0 -- -- 86
2018-09-09 23:00:00 22.2 3 Sur 14 Oeste 0 -- -- 83
2018-09-09 22:00:00 22.8 7 Oeste 15 Oeste 0 -- -- 80
2018-09-09 21:00:00 22.9 10 Oeste 21 Sudoeste 0 -- -- 78
2018-09-09 20:00:00 24 14 Sudoeste 24 Oeste 0 -- -- 74
2018-09-09 19:00:00 24.7 16 Oeste 27 Sudoeste 0 -- -- 73
2018-09-09 18:00:00 25.5 18 Oeste 28 Sudoeste 0 -- -- 70
2018-09-09 17:00:00 25.8 21 Sudoeste 28 Oeste 0 -- -- 69
2018-09-09 16:00:00 26.2 17 Oeste 35 Sudoeste 0 -- -- 67
2018-09-09 15:00:00 25.9 18 Oeste 24 Oeste 0 -- -- 69
2018-09-09 14:00:00 26 12 Oeste 21 Oeste 0 -- -- 68
2018-09-09 13:00:00 24.6 7 Noroeste 13 Oeste 0 -- -- 70
2018-09-09 12:00:00 23.3 6 Oeste 10 Noroeste 0 -- -- 76
2018-09-09 11:00:00 22.5 3 Noroeste 6 Noroeste 0 -- -- 81
2018-09-09 10:00:00 21.2 0 Calma 4 Sudeste 0 -- -- 89
2018-09-09 09:00:00 19 0 Calma 7 Nordeste 0 -- -- 93
2018-09-09 08:00:00 18.5 4 Nordeste 7 Nordeste 0 -- -- 91
2018-09-09 07:00:00 18.9 3 Nordeste 9 Nordeste 0 -- -- 92
2018-09-09 06:00:00 19.4 5 Nordeste 11 Norte 0 -- -- 94
2018-09-09 05:00:00 19.8 6 Norte 13 Nordeste 1.2 -- -- 90
2018-09-09 04:00:00 21.3 3 Noroeste 10 Noroeste 0.6 -- -- 83
2018-09-09 03:00:00 22.3 9 Noroeste 15 Noroeste 0 -- -- 77
2018-09-09 02:00:00 22.4 8 Noroeste 17 Noroeste 0 -- -- 77
2018-09-09 01:00:00 22.5 9 Oeste 18 Noroeste 0 -- -- 73
2018-09-09 00:00:00 22.5 10 Oeste 19 Oeste 0 -- -- 72
2018-09-08 23:00:00 22.6 11 Oeste 18 Oeste 0 -- -- 74
2018-09-08 22:00:00 22.5 9 Oeste 15 Oeste 0 -- -- 67
2018-09-08 21:00:00 22.4 10 Oeste 17 Oeste 0 -- -- 68
2018-09-08 20:00:00 23.3 10 Oeste 19 Oeste 0 -- -- 66
2018-09-08 19:00:00 24.4 12 Oeste 23 Sudoeste 0 -- -- 62
2018-09-08 18:00:00 24.5 14 Oeste 22 Sudoeste 0 -- -- 65
2018-09-08 17:00:00 24.8 12 Oeste 21 Oeste 0 -- -- 64
2018-09-08 16:00:00 24.6 11 Oeste 22 Oeste 0 -- -- 61
2018-09-08 15:00:00 24.8 11 Oeste 20 Oeste 0 -- -- 62
2018-09-08 14:00:00 24.8 8 Oeste 18 Oeste 0 -- -- 64
2018-09-08 13:00:00 23.9 9 Oeste 16 Oeste 0 -- -- 67
2018-09-08 12:00:00 22.9 7 Oeste 12 Sudoeste 0 -- -- 72
2018-09-08 11:00:00 22.6 6 Oeste 11 Oeste 0 -- -- 75
2018-09-08 10:00:00 21.6 0 Calma 9 Nordeste 0 -- -- 78
2018-09-08 09:00:00 20.7 2 Norte 10 Nordeste 0 -- -- 82
2018-09-08 08:00:00 21.2 4 Noroeste 11 Oeste 0 -- -- 78
2018-09-08 07:00:00 21.4 7 Oeste 14 Oeste 0 -- -- 78
2018-09-08 06:00:00 21.5 8 Oeste 15 Oeste 0 -- -- 79
2018-09-08 05:00:00 21.4 7 Oeste 14 Sudoeste 0 -- -- 80
2018-09-08 04:00:00 21.4 8 Sudoeste 15 Oeste 0 -- -- 77
2018-09-08 03:00:00 21.4 8 Sudoeste 18 Oeste 0 -- -- 77
2018-09-08 02:00:00 21.5 12 Oeste 20 Oeste 0 -- -- 78
2018-09-08 01:00:00 21.3 13 Oeste 20 Oeste 0 -- -- 78
2018-09-08 00:00:00 21.5 12 Oeste 18 Oeste 0 -- -- 76
2018-09-07 23:00:00 21.4 10 Oeste 20 Oeste 0 -- -- 76
2018-09-07 22:00:00 21.4 11 Oeste 19 Oeste 0 -- -- 74
2018-09-07 21:00:00 21.5 11 Oeste 24 Oeste 0 -- -- 76
2018-09-07 20:00:00 22.2 15 Oeste 26 Oeste 0 -- -- 74
2018-09-07 19:00:00 23.5 18 Oeste 27 Oeste 0 -- -- 70
2018-09-07 18:00:00 23.9 18 Oeste 28 Oeste 0 -- -- 70
2018-09-07 17:00:00 24.2 18 Oeste 26 Oeste 0 -- -- 67
2018-09-07 16:00:00 24.4 15 Oeste 24 Oeste 0 -- -- 66
2018-09-07 15:00:00 25.1 13 Sudoeste 23 Sudoeste 0 -- -- 65
2018-09-07 14:00:00 24.7 12 Sudoeste 26 Sudoeste 0 -- -- 64
2018-09-07 13:00:00 24.4 14 Sudoeste 25 Sur 0 -- -- 61
2018-09-07 12:00:00 24.1 8 Sur 19 Sur 0 -- -- 66
2018-09-07 11:00:00 23 8 Sur 18 Sudoeste 0 -- -- 69
2018-09-07 10:00:00 21.8 7 Sur 14 Sudeste 0 -- -- 72
2018-09-07 09:00:00 20.2 3 Este 8 Este 0 -- -- 81
2018-09-07 08:00:00 19.5 3 Este 6 Sudeste 0 -- -- 85
2018-09-07 07:00:00 19 5 Este 6 Este 0 -- -- 87
2018-09-07 06:00:00 19.7 3 Sur 6 Sur 0 -- -- 83
2018-09-07 05:00:00 20.2 4 Sudeste 7 Este 0 -- -- 83
2018-09-07 04:00:00 19.8 3 Sudeste 7 Sudeste 0 -- -- 85
2018-09-07 03:00:00 20.1 4 Sudeste 10 Sur 0 -- -- 85
2018-09-07 02:00:00 20.7 6 Sudoeste 18 Sudoeste 0 -- -- 81
2018-09-07 01:00:00 21 9 Sur 15 Sur 0 -- -- 84
2018-09-07 00:00:00 20.7 3 Sur 12 Sur 0 -- -- 85
2018-09-06 23:00:00 21 5 Sur 11 Sudoeste 0 -- -- 85
2018-09-06 22:00:00 21.4 5 Sur 12 Sudoeste 0 -- -- 84
2018-09-06 21:00:00 22 9 Sur 18 Sur 0 -- -- 81
2018-09-06 20:00:00 23.1 10 Sudoeste 22 Sudoeste 0 -- -- 76
2018-09-06 19:00:00 23.5 14 Sudoeste 26 Oeste 0 -- -- 75
2018-09-06 18:00:00 23.9 15 Sudoeste 26 Sudoeste 0 -- -- 71
2018-09-06 17:00:00 24.6 17 Sudoeste 30 Oeste 0 -- -- 67
2018-09-06 16:00:00 25.3 16 Oeste 24 Sudoeste 0 -- -- 64
2018-09-06 15:00:00 24.8 16 Oeste 24 Oeste 0 -- -- 68
2018-09-06 14:00:00 24.2 13 Sudoeste 23 Oeste 0 -- -- 73
2018-09-06 13:00:00 23.8 14 Oeste 22 Sudoeste 0 -- -- 74
2018-09-06 12:00:00 23 13 Oeste 19 Oeste 0 -- -- 79
2018-09-06 11:00:00 22.5 10 Oeste 17 Sudoeste 0 -- -- 80
2018-09-06 10:00:00 21.4 4 Norte 9 Norte 0 -- -- 83
2018-09-06 09:00:00 19.9 4 Este 7 Norte 0 -- -- 85
2018-09-06 08:00:00 18.8 3 Nordeste 7 Norte 0 -- -- 85
2018-09-06 07:00:00 20.1 3 Norte 8 Noroeste 0 -- -- 83
2018-09-06 06:00:00 20.7 3 Noroeste 10 Noroeste 0 -- -- 82
2018-09-06 05:00:00 21.5 5 Norte 18 Noroeste 0 -- -- 77
2018-09-06 04:00:00 22.1 10 Noroeste 27 Noroeste 0 -- -- 77
2018-09-06 03:00:00 22.7 13 Noroeste 25 Oeste 0 -- -- 76
2018-09-06 02:00:00 22.6 17 Oeste 26 Sudoeste 0 -- -- 82
2018-09-06 01:00:00 22.2 12 Sudoeste 23 Sudoeste 0 -- -- 81
2018-09-06 00:00:00 22.1 14 Sudoeste 24 Sudoeste 0 -- -- 84
2018-09-05 23:00:00 22.2 15 Sudoeste 24 Sudoeste 0 -- -- 80
2018-09-05 22:00:00 22.2 15 Sudoeste 24 Sudoeste 0 -- -- 82
2018-09-05 21:00:00 22.8 14 Sudoeste 27 Sudoeste 0 -- -- 77
2018-09-05 20:00:00 23.9 14 Sudoeste 26 Sudoeste 0 -- -- 71
2018-09-05 19:00:00 24.8 17 Oeste 27 Sudoeste 0 -- -- 71
2018-09-05 18:00:00 25.9 16 Sudoeste 27 Sudoeste 0 -- -- 63
2018-09-05 17:00:00 25.6 16 Sudoeste 29 Sudoeste 0 -- -- 66
2018-09-05 16:00:00 25.2 15 Oeste 24 Oeste 0 -- -- 67
2018-09-05 15:00:00 25.9 14 Oeste 26 Oeste 0 -- -- 63
2018-09-05 14:00:00 25.9 15 Oeste 21 Oeste 0 -- -- 62
2018-09-05 13:00:00 24.9 16 Oeste 22 Oeste 0 -- -- 66
2018-09-05 12:00:00 24.8 13 Oeste 20 Oeste 0 -- -- 70
2018-09-05 11:00:00 24 12 Oeste 21 Sudoeste 0 -- -- 73
2018-09-05 10:00:00 23.2 10 Oeste 15 Sudoeste 0 -- -- 74
2018-09-05 09:00:00 21.3 3 Sudeste 8 Este 0 -- -- 88
2018-09-05 08:00:00 21.7 4 Sudoeste 13 Oeste 0 -- -- 83
2018-09-05 07:00:00 22.1 9 Oeste 15 Oeste 0 -- -- 84
2018-09-05 06:00:00 21.6 5 Sur 13 Sudoeste 0 -- -- 85
2018-09-05 05:00:00 21.8 8 Sudoeste 18 Sudoeste 0 -- -- 84
2018-09-05 04:00:00 21.7 7 Sudoeste 15 Sudoeste 0 -- -- 83
2018-09-05 03:00:00 21.7 6 Sudoeste 13 Sudoeste 0 -- -- 84
2018-09-05 02:00:00 21.4 6 Sudoeste 13 Sudoeste 0 -- -- 82
2018-09-05 01:00:00 21.6 6 Sudoeste 16 Sudoeste 0 -- -- 79
2018-09-05 00:00:00 22.2 11 Sudoeste 22 Oeste 0 -- -- 80
2018-09-04 23:00:00 22.4 11 Sudoeste 20 Sudoeste 0 -- -- 77
2018-09-04 22:00:00 22.5 11 Sudoeste 20 Sudoeste 0 -- -- 73
2018-09-04 21:00:00 23 10 Sudoeste 22 Sudoeste 0 -- -- 72
2018-09-04 20:00:00 23.8 12 Sudoeste 21 Sudoeste 0 -- -- 71
2018-09-04 19:00:00 25.3 12 Sudoeste 23 Sudoeste 0 -- -- 66
2018-09-04 18:00:00 25.8 12 Sudoeste 25 Sudoeste 0 -- -- 64
2018-09-04 17:00:00 26.2 13 Sudoeste 25 Sudoeste 0 -- -- 63
2018-09-04 16:00:00 26.2 11 Sudoeste 23 Sudoeste 0 -- -- 61
2018-09-04 15:00:00 25.9 12 Oeste 20 Oeste 0 -- -- 59
2018-09-04 14:00:00 25.5 11 Oeste 17 Oeste 0 -- -- 58
2018-09-04 13:00:00 24.5 11 Oeste 16 Oeste 0 -- -- 65
2018-09-04 12:00:00 24.1 7 Oeste 15 Oeste 0 -- -- 67
2018-09-04 11:00:00 23.7 6 Sudoeste 12 Oeste 0 -- -- 68
2018-09-04 10:00:00 23.2 2 Sur 8 Sudeste 0 -- -- 71
2018-09-04 09:00:00 21 2 Sudeste 5 Sudeste 0 -- -- 81
2018-09-04 08:00:00 20.2 0 Calma 6 Sudeste 0 -- -- 80
2018-09-04 07:00:00 21.1 3 Sur 14 Oeste 0 -- -- 76
2018-09-04 06:00:00 21.9 9 Sudoeste 17 Sudoeste 0 -- -- 76
2018-09-04 05:00:00 22.1 8 Oeste 12 Sudoeste 0 -- -- 76
2018-09-04 04:00:00 21.5 4 Sur 9 Sudoeste 0 -- -- 78
2018-09-04 03:00:00 21.1 3 Sur 9 Sur 0 -- -- 79
2018-09-04 02:00:00 21.6 6 Sudoeste 17 Oeste 0 -- -- 75
2018-09-04 01:00:00 21.8 10 Sudoeste 18 Sudoeste 0 -- -- 75
2018-09-04 00:00:00 21.9 10 Oeste 21 Oeste 0 -- -- 77
2018-09-03 23:00:00 22.3 13 Sudoeste 22 Sudoeste 0 -- -- 79
2018-09-03 22:00:00 22.3 13 Sudoeste 23 Oeste 0 -- -- 78
2018-09-03 21:00:00 22.5 14 Sudoeste 26 Sudoeste 0 -- -- 77
2018-09-03 20:00:00 23.6 11 Sudoeste 26 Sudoeste 0 -- -- 73
2018-09-03 19:00:00 24.3 16 Oeste 28 Sudoeste 0 -- -- 69
2018-09-03 18:00:00 24.7 18 Oeste 31 Oeste 0 -- -- 68
2018-09-03 17:00:00 25.1 19 Oeste 32 Sudoeste 0 -- -- 67
2018-09-03 16:00:00 25.1 21 Sudoeste 33 Oeste 0 -- -- 68
2018-09-03 15:00:00 25.4 19 Sudoeste 30 Sudoeste 0 -- -- 68
2018-09-03 14:00:00 25.2 16 Sudoeste 28 Sudoeste 0 -- -- 66
2018-09-03 13:00:00 24.5 14 Sudoeste 23 Oeste 0 -- -- 71
2018-09-03 12:00:00 24 12 Oeste 21 Oeste 0 -- -- 74
2018-09-03 11:00:00 23.1 8 Sudoeste 15 Oeste 0 -- -- 81
2018-09-03 10:00:00 22.5 8 Oeste 14 Oeste 0 -- -- 84
2018-09-03 09:00:00 22.2 5 Sudoeste 13 Oeste 0 -- -- 82
2018-09-03 08:00:00 21.9 7 Oeste 15 Oeste 0 -- -- 84
2018-09-03 07:00:00 22.1 9 Sudoeste 15 Oeste 0 -- -- 85
2018-09-03 06:00:00 22 4 Sur 15 Sur 0 -- -- 83
2018-09-03 05:00:00 23 9 Sur 17 Sur 0 -- -- 81
2018-09-03 04:00:00 23.1 11 Sudoeste 21 Sur 0 -- -- 83
2018-09-03 03:00:00 23.2 9 Sur 19 Sur 0 -- -- 85
2018-09-03 02:00:00 23.1 10 Sudoeste 30 Sudoeste 0 -- -- 85
2018-09-03 01:00:00 23.3 17 Sur 32 Sur 0 -- -- 88
2018-09-03 00:00:00 23.4 14 Sudoeste 39 Sudeste 0 -- -- 93
2018-09-02 23:00:00 23.6 24 Sudeste 37 Sudeste 0 -- -- 91
2018-09-02 22:00:00 23.9 12 Sur 31 Sudoeste 0 -- -- 88
2018-09-02 21:00:00 24.6 14 Sudoeste 31 Sudoeste 0 -- -- 85
2018-09-02 20:00:00 25.9 18 Sudoeste 33 Sudoeste 0 -- -- 81
2018-09-02 19:00:00 29.2 18 Sudoeste 33 Sudoeste 0 -- -- 68
2018-09-02 18:00:00 31.8 15 Sur 28 Sur 0 -- -- 58
2018-09-02 17:00:00 32.9 15 Sur 25 Sudoeste 0 -- -- 56
2018-09-02 16:00:00 34.6 16 Sudoeste 31 Sudeste 0 -- -- 53
2018-09-02 15:00:00 35.2 20 Sudeste 32 Sur 0 -- -- 45
2018-09-02 14:00:00 34.3 19 Sudeste 34 Sudeste 0 -- -- 47
2018-09-02 13:00:00 32.9 19 Sudeste 36 Este 0 -- -- 52
2018-09-02 12:00:00 31.3 17 Sudeste 37 Este 0 -- -- 58
2018-09-02 11:00:00 29 13 Este 32 Nordeste 0 -- -- 60
2018-09-02 10:00:00 27 12 Este 23 Este 0 -- -- 67
2018-09-02 09:00:00 25.2 10 Este 22 Este 0 -- -- 73
2018-09-02 08:00:00 24.7 16 Este 32 Sudeste 0 -- -- 76
2018-09-02 07:00:00 24.7 17 Este 31 Este 0 -- -- 75
2018-09-02 06:00:00 24.3 8 Este 14 Este 0 -- -- 75
2018-09-02 05:00:00 24.6 9 Este 17 Sudeste 0 -- -- 72
2018-09-02 04:00:00 24 4 Nordeste 8 Nordeste 0 -- -- 64
2018-09-02 03:00:00 25.8 5 Este 28 Este 0 -- -- 58
2018-09-02 02:00:00 26.2 17 Este 34 Este 0 -- -- 61
2018-09-02 01:00:00 26 14 Este 29 Este 0 -- -- 65
2018-09-02 00:00:00 26.4 15 Este 32 Sudeste 0 -- -- 67
2018-09-01 23:00:00 27 19 Sudeste 32 Este 0 -- -- 63
2018-09-01 22:00:00 27.5 16 Sudeste 30 Sudeste 0 -- -- 62
2018-09-01 21:00:00 28.9 21 Sudeste 38 Sudeste 0 -- -- 57
2018-09-01 20:00:00 30.8 22 Sudeste 35 Sudeste 0 -- -- 50
2018-09-01 19:00:00 32.8 21 Sudeste 41 Sudeste 0 -- -- 49
2018-09-01 18:00:00 33.7 27 Sudeste 43 Sudeste 0 -- -- 46
2018-09-01 17:00:00 34.3 25 Sudeste 40 Sudeste 0 -- -- 46
2018-09-01 16:00:00 34.7 25 Sudeste 45 Sudeste 0 -- -- 46
2018-09-01 15:00:00 34.4 24 Sudeste 42 Sudeste 0 -- -- 47
2018-09-01 14:00:00 33.8 24 Sudeste 39 Este 0 -- -- 48
2018-09-01 13:00:00 32.4 24 Este 45 Este 0 -- -- 51
2018-09-01 12:00:00 31.1 24 Este 38 Este 0 -- -- 52
2018-09-01 11:00:00 29.3 10 Nordeste 33 Este 0 -- -- 56
2018-09-01 10:00:00 27.4 18 Este 32 Este 0 -- -- 66
2018-09-01 09:00:00 24.9 13 Este 25 Este 0 -- -- 75
2018-09-01 08:00:00 21.4 6 Este 13 Este 0 -- -- 81
2018-09-01 07:00:00 20.8 6 Este 10 Sudeste 0 -- -- 87
2018-09-01 06:00:00 21.1 3 Sudeste 9 Nordeste 0 -- -- 88
2018-09-01 05:00:00 21.9 4 Nordeste 9 Este 0 -- -- 87
2018-09-01 04:00:00 22.9 4 Este 6 Nordeste 0 -- -- 87
2018-09-01 03:00:00 24.6 3 Norte 8 Noroeste 0 -- -- 86
2018-09-01 02:00:00 24.8 4 Noroeste 12 Oeste 0 -- -- 87
2018-09-01 01:00:00 24.7 3 Norte 5 Norte 0 -- -- 86
2018-09-01 00:00:00 25.4 2 Nordeste 7 Este 0 -- -- 82
2018-08-31 23:00:00 26 3 Oeste 8 Noroeste 0 -- -- 81
2018-08-31 22:00:00 27.8 2 Nordeste 17 Sudeste 0 -- -- 59
2018-08-31 21:00:00 30 12 Sudeste 21 Sudeste 0 -- -- 52
2018-08-31 20:00:00 32.7 13 Sudeste 23 Sur 0 -- -- 46
2018-08-31 19:00:00 32.2 14 Sudoeste 26 Sur 0 -- -- 52
2018-08-31 18:00:00 32.4 15 Sudoeste 24 Sudoeste 0 -- -- 52
2018-08-31 17:00:00 33.7 12 Sudoeste 23 Sudoeste 0 -- -- 47
2018-08-31 16:00:00 31.4 15 Oeste 23 Oeste 0 -- -- 57
2018-08-31 15:00:00 31 13 Oeste 21 Oeste 0 -- -- 57
2018-08-31 14:00:00 31.1 15 Oeste 24 Oeste 0 -- -- 51
2018-08-31 13:00:00 32.5 9 Este 22 Nordeste 0 -- -- 44
2018-08-31 12:00:00 30.5 9 Nordeste 17 Nordeste 0 -- -- 50
2018-08-31 11:00:00 28.1 5 Nordeste 18 Este 0 -- -- 61
2018-08-31 10:00:00 25.6 12 Nordeste 21 Nordeste 0 -- -- 68
2018-08-31 09:00:00 21.7 4 Este 9 Este 0 -- -- 88
2018-08-31 08:00:00 20.3 5 Nordeste 9 Nordeste 0 -- -- 93
2018-08-31 07:00:00 20 5 Nordeste 8 Nordeste 0 -- -- 92
2018-08-31 06:00:00 20.2 3 Nordeste 7 Este 0 -- -- 93
2018-08-31 05:00:00 20.6 0 Calma 6 Sudeste 0 -- -- 92
2018-08-31 04:00:00 21.8 4 Noroeste 9 Noroeste 0 -- -- 90
2018-08-31 03:00:00 21.7 2 Nordeste 5 Norte 0 -- -- 88
2018-08-31 02:00:00 22 2 Norte 5 Noroeste 0 -- -- 87
2018-08-31 01:00:00 22.6 2 Este 5 Este 0 -- -- 86
2018-08-31 00:00:00 23.2 4 Sudeste 7 Sudeste 0 -- -- 85
2018-08-30 23:00:00 24.4 0 Calma 12 Oeste 0 -- -- 83
2018-08-30 22:00:00 24.8 8 Noroeste 13 Oeste 0 -- -- 79
2018-08-30 21:00:00 25 8 Noroeste 15 Oeste 0 -- -- 79
2018-08-30 20:00:00 26 10 Oeste 17 Oeste 0 -- -- 78
2018-08-30 19:00:00 26.4 13 Oeste 20 Sudoeste 0 -- -- 74
2018-08-30 18:00:00 26.6 14 Oeste 22 Oeste 0 -- -- 72
2018-08-30 17:00:00 26 14 Oeste 21 Sudoeste 0 -- -- 75
2018-08-30 16:00:00 26 14 Oeste 23 Oeste 0 -- -- 76
2018-08-30 15:00:00 25.5 16 Oeste 23 Oeste 0 -- -- 75
2018-08-30 14:00:00 26.5 12 Sudoeste 25 Sudoeste 0 -- -- 71
2018-08-30 13:00:00 26.4 9 Sur 19 Sudoeste 0 -- -- 72
2018-08-30 12:00:00 26.1 7 Sur 18 Sudeste 0 -- -- 71
2018-08-30 11:00:00 24.5 13 Sudeste 21 Sudeste 0 -- -- 78
2018-08-30 10:00:00 23.2 10 Sudeste 18 Sudeste 0 -- -- 85
2018-08-30 09:00:00 20.5 4 Este 10 Sudeste 0 -- -- 96
2018-08-30 08:00:00 19.9 6 Sudeste 10 Sudeste 0 -- -- 96
2018-08-30 07:00:00 20.1 6 Sudeste 10 Sudeste 0 -- -- 95
2018-08-30 06:00:00 20.2 7 Sudeste 12 Sur 0 -- -- 95
2018-08-30 05:00:00 20.1 7 Sudeste 12 Sudeste 0 -- -- 95
2018-08-30 04:00:00 20.1 6 Sudeste 11 Sur 0 -- -- 94
2018-08-30 03:00:00 20 5 Sudeste 8 Sudeste 0 -- -- 92
2018-08-30 02:00:00 20.4 5 Sudeste 9 Sur 0 -- -- 91
2018-08-30 01:00:00 21.1 4 Sudoeste 12 Sudoeste 0 -- -- 88
2018-08-30 00:00:00 21.6 8 Sudoeste 15 Sudoeste 0 -- -- 90
2018-08-29 23:00:00 21.8 9 Sudoeste 17 Sudoeste 0 -- -- 89
2018-08-29 22:00:00 22.1 11 Sudoeste 18 Sudoeste 0 -- -- 87
2018-08-29 21:00:00 22.6 13 Sudoeste 26 Sudoeste 0 -- -- 86
2018-08-29 20:00:00 23.9 17 Sudoeste 30 Oeste 0 -- -- 79
2018-08-29 19:00:00 25.1 18 Sudoeste 27 Sudoeste 0 -- -- 72
2018-08-29 18:00:00 25.8 17 Sudoeste 29 Sudoeste 0 -- -- 67
2018-08-29 17:00:00 26.6 17 Oeste 28 Oeste 0 -- -- 64
2018-08-29 16:00:00 26.6 17 Oeste 25 Sudoeste 0 -- -- 62
2018-08-29 15:00:00 26.1 17 Oeste 24 Oeste 0 -- -- 68
2018-08-29 14:00:00 25.3 14 Oeste 21 Oeste 0 -- -- 69
2018-08-29 13:00:00 24.6 12 Oeste 18 Oeste 0 -- -- 71
2018-08-29 12:00:00 23.9 8 Oeste 14 Oeste 0 -- -- 74
2018-08-29 11:00:00 22.3 7 Oeste 14 Oeste 0 -- -- 79
2018-08-29 10:00:00 21.9 6 Norte 13 Noroeste 0 -- -- 82
2018-08-29 09:00:00 20.2 4 Nordeste 7 Nordeste 0 -- -- 92
2018-08-29 08:00:00 19.1 3 Nordeste 7 Norte 0 -- -- 93
2018-08-29 07:00:00 20 3 Nordeste 9 Oeste 0 -- -- 95
2018-08-29 06:00:00 19.6 3 Sudeste 6 Sur 0 -- -- 96
2018-08-29 05:00:00 20.5 4 Sur 10 Sur 0 -- -- 96
2018-08-29 04:00:00 21 6 Sur 11 Sur 0 -- -- 97
2018-08-29 03:00:00 20.8 7 Sur 13 Sur 0 -- -- 96
2018-08-29 02:00:00 20.9 8 Sur 13 Sudeste 0 -- -- 96
2018-08-29 01:00:00 21 8 Sur 13 Sudeste 0 -- -- 96
2018-08-29 00:00:00 20.9 7 Sudeste 11 Sudeste 0 -- -- 94
2018-08-28 23:00:00 21.6 5 Sudeste 9 Sur 0 -- -- 92
2018-08-28 22:00:00 22.4 5 Sudoeste 14 Sudoeste 0 -- -- 91
2018-08-28 21:00:00 23.1 9 Sudoeste 20 Oeste 0 -- -- 89
2018-08-28 20:00:00 23.9 14 Oeste 25 Oeste 0 -- -- 84
2018-08-28 19:00:00 24.5 16 Oeste 27 Oeste 0 -- -- 79
2018-08-28 18:00:00 24.6 19 Oeste 27 Oeste 0 -- -- 84
2018-08-28 17:00:00 25.3 19 Oeste 27 Oeste 0 -- -- 80
2018-08-28 16:00:00 25.5 18 Oeste 28 Oeste 0 -- -- 80
2018-08-28 15:00:00 25.4 19 Oeste 29 Oeste 0 -- -- 79
2018-08-28 14:00:00 26 18 Oeste 24 Oeste 0 -- -- 80
2018-08-28 13:00:00 26 15 Oeste 22 Oeste 0 -- -- 81
2018-08-28 12:00:00 25.5 12 Oeste 17 Oeste 0 -- -- 83
2018-08-28 11:00:00 24.6 9 Oeste 13 Oeste 0 -- -- 87
2018-08-28 10:00:00 23.8 4 Noroeste 8 Noroeste 0 -- -- 91
2018-08-28 09:00:00 22.4 5 Oeste 8 Oeste 0 -- -- 97
2018-08-28 08:00:00 20.9 0 Calma 5 Sur 0 -- -- 96
2018-08-28 07:00:00 21.4 3 Sur 8 Sudoeste 0 -- -- 95
2018-08-28 06:00:00 22 5 Sudeste 12 Sudeste 0 -- -- 95
2018-08-28 05:00:00 22.4 6 Sudeste 14 Sudeste 0 -- -- 96
2018-08-28 04:00:00 22.8 9 Sudeste 17 Sudoeste 0 -- -- 95
2018-08-28 03:00:00 23.4 10 Sur 31 Sur 0 -- -- 89
2018-08-28 02:00:00 23.5 17 Sur 42 Sur 0 -- -- 93
2018-08-28 01:00:00 23.4 24 Sur 48 Sur 0 -- -- 93
2018-08-28 00:00:00 23.6 30 Sudeste 54 Sudeste 0 -- -- 92
2018-08-27 23:00:00 23.8 32 Sudeste 50 Sudeste 0 -- -- 90
2018-08-27 22:00:00 26.5 27 Sudeste 41 Sudeste 0 -- -- 69
2018-08-27 21:00:00 26.2 19 Sudeste 34 Sur 0 -- -- 75
2018-08-27 20:00:00 29 14 Sur 31 Sudeste 0 -- -- 64
2018-08-27 19:00:00 33.2 26 Sudeste 42 Sudeste 0 -- -- 44
2018-08-27 18:00:00 33.8 26 Sudeste 48 Sudeste 0 -- -- 44
2018-08-27 17:00:00 33.5 30 Este 46 Este 0 -- -- 43
2018-08-27 16:00:00 33.9 30 Sudeste 45 Sudeste 0 -- -- 43
2018-08-27 15:00:00 31 10 Sudeste 35 Sudoeste 0 -- -- 55
2018-08-27 14:00:00 31.7 15 Este 41 Nordeste 0 -- -- 46
2018-08-27 13:00:00 30.4 12 Nordeste 33 Nordeste 0 -- -- 52
2018-08-27 12:00:00 26.2 11 Nordeste 44 Sudoeste 0 -- -- 66
2018-08-27 11:00:00 27.4 11 Nordeste 27 Nordeste 0 -- -- 61
2018-08-27 10:00:00 26.2 15 Nordeste 27 Nordeste 0 -- -- 65
2018-08-27 09:00:00 23.2 2 Nordeste 12 Nordeste 0 -- -- 73
2018-08-27 08:00:00 21.5 7 Este 10 Este 0 -- -- 77
2018-08-27 07:00:00 21.1 4 Sudeste 12 Este 0 -- -- 73
2018-08-27 06:00:00 20.5 6 Este 10 Este 0 -- -- 81
2018-08-27 05:00:00 20.5 5 Este 6 Este 0 -- -- 85
2018-08-27 04:00:00 21.1 3 Este 8 Nordeste 0 -- -- 88
2018-08-27 03:00:00 21.9 5 Nordeste 8 Nordeste 0 -- -- 90
2018-08-27 02:00:00 21.8 4 Nordeste 4 Nordeste 0 -- -- 89
2018-08-27 01:00:00 22.1 3 Este 4 Este 0 -- -- 87
2018-08-27 00:00:00 23 3 Nordeste 4 Este 0 -- -- 87
2018-08-26 23:00:00 23.7 2 Sudeste 4 Sudeste 0 -- -- 84
2018-08-26 22:00:00 24.9 0 Calma 9 Noroeste 0 -- -- 82
2018-08-26 21:00:00 26.1 5 Noroeste 12 Oeste 0 -- -- 79
2018-08-26 20:00:00 27.5 9 Oeste 15 Oeste 0 -- -- 69
2018-08-26 19:00:00 28.7 11 Oeste 19 Oeste 0 -- -- 64
2018-08-26 18:00:00 29.7 14 Oeste 19 Oeste 0 -- -- 55
2018-08-26 17:00:00 30.5 13 Oeste 21 Oeste 0 -- -- 54
2018-08-26 16:00:00 31.3 14 Sudoeste 22 Sudoeste 0 -- -- 45
2018-08-26 15:00:00 32.2 10 Sudoeste 18 Sudoeste 0 -- -- 43
2018-08-26 14:00:00 31.7 10 Sur 21 Sur 0 -- -- 45
2018-08-26 13:00:00 31.5 15 Sudeste 23 Sudeste 0 -- -- 46
2018-08-26 12:00:00 28.8 6 Sudeste 13 Este 0 -- -- 60
2018-08-26 11:00:00 25.6 8 Sudeste 15 Sudeste 0 -- -- 79
2018-08-26 10:00:00 22.8 7 Sudeste 19 Sudeste 0 -- -- 98
2018-08-26 09:00:00 21.6 10 Sudeste 18 Sudeste 0 -- -- 100
2018-08-26 08:00:00 21.3 10 Sudeste 15 Sudeste 0 -- -- 100
2018-08-26 07:00:00 20.9 7 Sudeste 11 Sudeste 0 -- -- 99
2018-08-26 06:00:00 20.2 6 Sudeste 8 Sudeste 0 -- -- 97
2018-08-26 05:00:00 20.7 3 Sudeste 8 Este 0 -- -- 97
2018-08-26 04:00:00 21.1 4 Sudeste 7 Sudeste 0 -- -- 96
2018-08-26 03:00:00 21.5 3 Sudeste 8 Sur 0 -- -- 95
2018-08-26 02:00:00 22 4 Sur 9 Sudeste 0 -- -- 95
2018-08-26 01:00:00 22 6 Sudeste 10 Sudeste 0 -- -- 93
2018-08-26 00:00:00 22.3 6 Sudeste 8 Sudeste 0 -- -- 93
2018-08-25 23:00:00 23.2 4 Sur 8 Sur 0 -- -- 93
2018-08-25 22:00:00 24.4 4 Sur 10 Sur 0 -- -- 90
2018-08-25 21:00:00 25.5 5 Sur 15 Sudoeste 0 -- -- 85
2018-08-25 20:00:00 26.7 10 Sudoeste 18 Sudoeste 0 -- -- 78
2018-08-25 19:00:00 28.2 12 Sudoeste 19 Sur 0 -- -- 70
2018-08-25 18:00:00 29.5 10 Sudoeste 21 Sur 0 -- -- 66
2018-08-25 17:00:00 29.8 12 Sudoeste 22 Sur 0 -- -- 60
2018-08-25 16:00:00 30.6 12 Sur 23 Sur 0 -- -- 58
2018-08-25 15:00:00 30 13 Sur 24 Sur 0 -- -- 60
2018-08-25 14:00:00 30.6 12 Sur 23 Sudeste 0 -- -- 59
2018-08-25 13:00:00 29 13 Sudeste 21 Sudeste 0 -- -- 61
2018-08-25 12:00:00 27.8 12 Sur 23 Sudeste 0 -- -- 71
2018-08-25 11:00:00 26.8 15 Sur 23 Sudeste 0 -- -- 75
2018-08-25 10:00:00 25.3 9 Sur 15 Sur 0 -- -- 85
2018-08-25 09:00:00 22.7 4 Sudeste 5 Sudeste 0 -- -- 97
2018-08-25 08:00:00 20.9 3 Sudeste 4 Sudeste 0 -- -- 95
2018-08-25 07:00:00 21.3 4 Sudeste 5 Sur 0 -- -- 94
2018-08-25 06:00:00 21.7 4 Sudeste 8 Sur 0 -- -- 94
2018-08-25 05:00:00 22 5 Sur 9 Sur 0 -- -- 92
2018-08-25 04:00:00 22.1 6 Sudeste 9 Sudeste 0 -- -- 90
2018-08-25 03:00:00 21.9 6 Sur 10 Sudeste 0 -- -- 90
2018-08-25 02:00:00 21.7 5 Sur 8 Sur 0 -- -- 85
2018-08-25 01:00:00 22.2 5 Sudeste 10 Este 0 -- -- 82
2018-08-25 00:00:00 23.1 3 Sudoeste 5 Sudoeste 0 -- -- 80
2018-08-24 23:00:00 24.2 0 Calma 6 Oeste 0 -- -- 77
2018-08-24 22:00:00 25.3 6 Oeste 13 Oeste 0 -- -- 73
2018-08-24 21:00:00 26 9 Oeste 18 Sudoeste 0 -- -- 76
2018-08-24 20:00:00 27.8 11 Oeste 19 Oeste 0 -- -- 67
2018-08-24 19:00:00 30.4 13 Sudoeste 18 Oeste 0 -- -- 50
2018-08-24 18:00:00 31.4 10 Sudoeste 17 Oeste 0 -- -- 46
2018-08-24 17:00:00 30.4 13 Oeste 20 Sudoeste 0 -- -- 49
2018-08-24 16:00:00 30.8 13 Oeste 22 Sudoeste 0 -- -- 52
2018-08-24 15:00:00 30.9 13 Sudoeste 23 Sudoeste 0 -- -- 46
2018-08-24 14:00:00 30.8 13 Sudoeste 23 Sur 0 -- -- 46
2018-08-24 13:00:00 31.2 11 Sudoeste 18 Sudoeste 0 -- -- 46
2018-08-24 12:00:00 28.6 6 Oeste 13 Oeste 0 -- -- 69
2018-08-24 11:00:00 28.3 4 Sur 9 Sur 0 -- -- 67
2018-08-24 10:00:00 25.6 0 Calma 5 Sudoeste 0 -- -- 78
2018-08-24 09:00:00 21.9 2 Sudeste 4 Sudeste 0 -- -- 89
2018-08-24 08:00:00 20.1 4 Sur 7 Sudeste 0 -- -- 90
2018-08-24 07:00:00 20.6 6 Sudeste 7 Sudeste 0 -- -- 91
2018-08-24 06:00:00 21 4 Sudeste 7 Sudeste 0 -- -- 91
2018-08-24 05:00:00 21.5 4 Sudeste 6 Sudeste 0 -- -- 91
2018-08-24 04:00:00 21.9 4 Sudeste 10 Sur 0 -- -- 91
2018-08-24 03:00:00 22.4 7 Sur 11 Sur 0 -- -- 92
2018-08-24 02:00:00 22.1 6 Sudeste 9 Sudeste 0 -- -- 86
2018-08-24 01:00:00 22.6 4 Sudeste 11 Sudeste 0 -- -- 83
2018-08-24 00:00:00 23.1 7 Sudeste 10 Sudeste 0 -- -- 77